Time;durP1;ratioP1;P1;durP2;ratioP2;P2;SDS_P1;SDS_P2;PMS_P1;PMS_P2;Temp;Humidity;BMP_temperature;BMP_pressure;BME280_temperature;BME280_humidity;BME280_pressure;Samples;Min_cycle;Max_cycle;Signal;HPM_P1;HPM_P2
2022/02/16 00:01:14;;;;;;;9.43;4.87;;;;;;;6.58;53.61;101272.28;1711791;83;21142;-64
2022/02/16 00:03:40;;;;;;;10.00;5.67;;;;;;;6.52;53.75;101272.35;1711927;83;21534;-63
2022/02/16 00:06:07;;;;;;;9.08;4.72;;;;;;;6.45;53.85;101271.72;1710036;83;21000;-70
2022/02/16 00:08:34;;;;;;;8.63;4.55;;;;;;;6.42;54.30;101264.20;1710947;83;21998;-63
2022/02/16 00:11:00;;;;;;;9.33;5.00;;;;;;;6.40;54.59;101270.78;1709983;83;21605;-71
2022/02/16 00:13:27;;;;;;;11.03;4.85;;;;;;;6.36;54.59;101264.71;1710732;82;21141;-63
2022/02/16 00:16:25;;;;;;;10.03;5.05;;;;;;;6.22;55.09;101266.72;1710619;82;20945;-64
2022/02/16 00:18:51;;;;;;;8.90;4.65;;;;;;;6.36;54.67;101262.12;1705599;82;21072;-63
2022/02/16 00:21:18;;;;;;;7.87;4.15;;;;;;;6.36;54.46;101267.30;1710320;83;20977;-63
2022/02/16 00:23:44;;;;;;;9.80;4.67;;;;;;;6.44;54.63;101268.31;1710381;83;20906;-70
2022/02/16 00:26:29;;;;;;;9.03;4.35;;;;;;;6.35;55.25;101263.90;1709729;83;21158;-64
2022/02/16 00:28:57;;;;;;;7.28;3.90;;;;;;;6.27;56.01;101266.32;1709799;83;21704;-66
2022/02/16 00:31:24;;;;;;;8.75;4.35;;;;;;;5.97;58.25;101261.95;1710820;82;21086;-72
2022/02/16 00:33:50;;;;;;;7.17;3.90;;;;;;;6.20;59.50;101260.02;1710287;83;21004;-65
2022/02/16 00:36:18;;;;;;;8.25;3.90;;;;;;;6.30;59.50;101259.59;1710407;82;21553;-66
2022/02/16 00:38:44;;;;;;;7.17;4.08;;;;;;;6.23;60.13;101261.06;1710704;82;21122;-64
2022/02/16 00:41:11;;;;;;;7.47;4.15;;;;;;;6.30;60.65;101256.53;1710117;83;21092;-64
2022/02/16 00:43:38;;;;;;;8.35;4.30;;;;;;;6.22;61.73;101257.66;1710208;83;20921;-67
2022/02/16 00:46:05;;;;;;;7.53;3.67;;;;;;;6.28;62.30;101261.00;1710234;83;21113;-65
2022/02/16 00:48:33;;;;;;;7.17;3.75;;;;;;;6.14;63.86;101254.05;1710305;83;21088;-69
2022/02/16 00:50:59;;;;;;;8.55;3.83;;;;;;;6.25;62.96;101250.92;1710280;83;21297;-65
2022/02/16 00:53:27;;;;;;;10.48;5.12;;;;;;;6.08;65.19;101249.75;1710712;83;21582;-65
2022/02/16 00:55:54;;;;;;;8.20;4.45;;;;;;;6.22;65.84;101253.77;1709910;83;21581;-64
2022/02/16 00:58:21;;;;;;;8.60;4.37;;;;;;;6.23;66.31;101254.59;1700075;82;21113;-65
2022/02/16 01:00:48;;;;;;;6.75;3.45;;;;;;;6.25;66.85;101249.63;1710208;82;20949;-65
2022/02/16 01:03:14;;;;;;;6.87;3.60;;;;;;;6.47;65.45;101246.48;1711568;82;21137;-64
2022/02/16 01:05:41;;;;;;;8.18;3.80;;;;;;;6.43;64.76;101245.93;1724186;83;21541;-66
2022/02/16 01:08:09;;;;;;;9.55;4.33;;;;;;;6.42;64.95;101243.00;1723125;83;20962;-65
2022/02/16 01:10:38;;;;;;;8.68;4.72;;;;;;;6.49;63.92;101233.76;1723627;83;20992;-67
2022/02/16 01:13:05;;;;;;;7.90;4.30;;;;;;;6.48;63.53;101232.12;1722764;83;21428;-66
2022/02/16 01:15:33;;;;;;;8.38;4.37;;;;;;;6.53;62.44;101236.42;1723548;83;20965;-65
2022/02/16 01:18:01;;;;;;;9.38;4.67;;;;;;;6.50;63.10;101230.20;1722452;83;21494;-69
2022/02/16 01:20:31;;;;;;;11.05;5.12;;;;;;;6.39;62.71;101225.61;1723426;83;21206;-65
2022/02/16 01:23:00;;;;;;;8.28;4.42;;;;;;;6.68;60.53;101225.21;1721243;83;21032;-66
2022/02/16 01:25:26;;;;;;;9.08;5.00;;;;;;;6.58;60.35;101222.59;1723450;82;21147;-65
2022/02/16 01:27:54;;;;;;;12.58;5.62;;;;;;;6.60;59.99;101226.36;1723749;83;21155;-69
2022/02/16 01:30:22;;;;;;;14.70;6.03;;;;;;;6.57;60.76;101224.84;1712139;83;21000;-65
2022/02/16 01:32:55;;;;;;;11.68;5.95;;;;;;;6.40;61.72;101226.77;1722978;83;21000;-65
2022/02/16 01:35:23;;;;;;;15.45;6.78;;;;;;;6.47;62.04;101227.06;1711646;83;21028;-65
2022/02/16 01:37:50;;;;;;;16.10;7.20;;;;;;;6.51;61.20;101229.73;1723462;83;21000;-68
2022/02/16 01:40:17;;;;;;;16.73;7.33;;;;;;;6.55;60.95;101231.94;1722992;83;21112;-65
2022/02/16 01:42:45;;;;;;;16.30;6.97;;;;;;;6.68;60.22;101233.46;1722923;83;20956;-64
2022/02/16 01:45:13;;;;;;;15.08;5.67;;;;;;;6.56;59.94;101228.39;1722076;83;21051;-64
2022/02/16 01:47:40;;;;;;;11.63;5.75;;;;;;;6.45;60.70;101233.68;1723438;83;21589;-65
2022/02/16 01:50:09;;;;;;;12.55;5.75;;;;;;;6.63;60.85;101236.91;1698804;83;21506;-65
2022/02/16 01:52:35;;;;;;;10.82;6.08;;;;;;;6.50;60.44;101234.57;1723167;83;21620;-66
2022/02/16 01:55:04;;;;;;;9.78;5.35;;;;;;;6.44;61.04;101235.94;1722206;83;21011;-66
2022/02/16 01:57:34;;;;;;;9.87;5.10;;;;;;;6.47;61.02;101235.64;1723332;83;21031;-66
2022/02/16 02:00:04;;;;;;;10.08;5.37;;;;;;;6.40;61.94;101238.89;1720870;82;21551;-67
2022/02/16 02:02:46;;;;;;;10.30;5.45;;;;;;;6.58;62.26;101236.83;1723118;83;21118;-63
2022/02/16 02:05:30;;;;;;;11.28;6.65;;;;;;;6.69;62.65;101241.57;1711256;83;21099;-63
2022/02/16 02:07:58;;;;;;;10.75;6.80;;;;;;;7.17;60.14;101236.92;1708505;83;20945;-64
2022/02/16 02:10:25;;;;;;;15.15;6.80;;;;;;;7.11;60.65;101229.67;1710241;83;21528;-64
2022/02/16 02:12:52;;;;;;;11.18;6.10;;;;;;;7.20;60.38;101226.28;1710348;83;20961;-63
2022/02/16 02:15:22;;;;;;;12.53;6.53;;;;;;;7.03;62.43;101232.47;1709402;83;20984;-65
2022/02/16 02:18:00;;;;;;;12.70;7.42;;;;;;;6.77;66.02;101228.76;1707453;83;21168;-64
2022/02/16 02:20:29;;;;;;;16.60;7.83;;;;;;;7.21;64.06;101226.13;1709849;82;21167;-63
2022/02/16 02:22:56;;;;;;;12.40;6.85;;;;;;;7.28;65.16;101226.41;1687092;83;21095;-64
2022/02/16 02:25:22;;;;;;;15.75;8.03;;;;;;;7.41;64.83;101223.52;1709235;83;21063;-65
2022/02/16 02:27:50;;;;;;;13.62;7.33;;;;;;;7.39;65.48;101221.08;1706465;82;21436;-63
2022/02/16 02:30:16;;;;;;;13.30;8.28;;;;;;;7.35;66.85;101218.42;1709251;83;21153;-68
2022/02/16 02:32:48;;;;;;;13.98;8.15;;;;;;;7.20;69.30;101219.80;1710156;82;21084;-65
2022/02/16 02:35:14;;;;;;;13.20;7.50;;;;;;;7.26;70.23;101216.64;1710055;83;21569;-68
2022/02/16 02:37:42;;;;;;;14.78;8.43;;;;;;;7.52;69.59;101218.99;1710308;83;21099;-63
2022/02/16 02:40:09;;;;;;;13.98;8.75;;;;;;;7.58;68.89;101221.98;1709137;83;21013;-64
2022/02/16 02:42:39;;;;;;;14.95;9.13;;;;;;;7.45;69.41;101221.80;1710250;83;22584;-63
2022/02/16 02:45:08;;;;;;;14.33;8.70;;;;;;;7.46;69.93;101223.46;1709504;83;20973;-67
2022/02/16 02:47:35;;;;;;;14.73;8.13;;;;;;;7.45;70.62;101229.58;1710138;83;21490;-63
2022/02/16 02:50:04;;;;;;;13.83;9.13;;;;;;;7.61;70.06;101228.19;1703541;83;21139;-67
2022/02/16 02:52:36;;;;;;;18.07;9.20;;;;;;;7.82;69.08;101230.13;1710722;83;21094;-63
2022/02/16 02:54:59;;;;;;;14.20;9.25;;;;;;;7.84;68.23;101224.78;1709295;83;21175;-63
2022/02/16 02:57:26;;;;;;;17.35;10.03;;;;;;;8.09;66.13;101219.45;1710458;83;21006;-68
2022/02/16 02:59:53;;;;;;;15.58;9.35;;;;;;;8.19;65.21;101215.86;1710353;82;20954;-67
2022/02/16 03:02:20;;;;;;;16.85;10.10;;;;;;;8.37;64.09;101215.06;1710514;83;20961;-64
2022/02/16 03:04:46;;;;;;;15.28;9.95;;;;;;;8.34;62.74;101213.59;1711567;82;21016;-64
2022/02/16 03:07:13;;;;;;;13.95;8.80;;;;;;;8.26;63.39;101211.73;1712163;83;21156;-64
2022/02/16 03:09:42;;;;;;;14.23;8.80;;;;;;;8.42;62.54;101207.22;1712354;83;21087;-64
2022/02/16 03:12:09;;;;;;;33.00;18.30;;;;;;;8.43;62.18;101203.66;1711679;83;21737;-63
2022/02/16 03:14:37;;;;;;;24.18;14.38;;;;;;;8.85;59.89;101200.50;1712529;83;20981;-64
2022/02/16 03:17:04;;;;;;;19.92;11.60;;;;;;;8.81;59.51;101199.17;1712678;83;21499;-63
2022/02/16 03:19:31;;;;;;;26.97;15.98;;;;;;;8.98;58.43;101198.36;1712716;83;21163;-68
2022/02/16 03:21:58;;;;;;;19.55;11.65;;;;;;;8.79;58.74;101202.41;1711509;83;20941;-66
2022/02/16 03:24:25;;;;;;;22.00;11.38;;;;;;;8.59;59.86;101197.81;1686240;83;21115;-63
2022/02/16 03:26:52;;;;;;;22.30;12.63;;;;;;;8.72;59.45;101201.36;1713722;82;21088;-63
2022/02/16 03:29:20;;;;;;;22.67;12.05;;;;;;;8.85;59.17;101200.50;1712648;83;21057;-65
2022/02/16 03:31:49;;;;;;;19.62;10.45;;;;;;;8.79;58.92;101195.91;1711395;82;21248;-68
2022/02/16 03:34:16;;;;;;;16.60;9.93;;;;;;;9.01;58.44;101197.22;1712584;83;21008;-64
2022/02/16 03:36:45;;;;;;;17.77;10.55;;;;;;;7.99;61.11;101195.66;1712547;83;21080;-65
2022/02/16 03:39:12;;;;;;;18.12;10.80;;;;;;;7.95;63.91;101196.05;1712991;82;20977;-64
2022/02/16 03:41:39;;;;;;;17.77;10.10;;;;;;;8.01;64.30;101195.02;1712409;83;21037;-69
2022/02/16 03:44:08;;;;;;;27.15;14.70;;;;;;;7.98;64.64;101202.27;1712114;83;21507;-64
2022/02/16 03:46:38;;;;;;;23.00;12.55;;;;;;;8.05;65.00;101195.55;1712946;83;20921;-63
2022/02/16 03:49:04;;;;;;;24.85;12.28;;;;;;;8.07;64.81;101196.69;1712237;83;21585;-63
2022/02/16 03:51:31;;;;;;;25.27;12.85;;;;;;;7.98;66.35;101195.78;1712832;83;21538;-65
2022/02/16 03:54:00;;;;;;;23.67;12.23;;;;;;;8.09;65.78;101197.38;1710894;83;21017;-64
2022/02/16 03:56:27;;;;;;;27.42;14.00;;;;;;;8.52;64.98;101195.00;1713516;83;21610;-64
2022/02/16 03:58:54;;;;;;;31.50;15.35;;;;;;;8.92;60.89;101192.45;1713017;83;21026;-64
2022/02/16 04:01:21;;;;;;;29.55;15.10;;;;;;;8.88;60.31;101192.41;1674312;79;21116;-64
2022/02/16 04:03:47;;;;;;;30.35;15.38;;;;;;;8.95;59.72;101190.86;1684957;83;21101;-67
2022/02/16 04:06:15;;;;;;;32.38;16.70;;;;;;;8.95;59.36;101193.45;1712747;83;21479;-65
2022/02/16 04:08:41;;;;;;;30.35;17.23;;;;;;;9.03;59.34;101190.59;1712904;83;21337;-64
2022/02/16 04:11:08;;;;;;;34.20;18.00;;;;;;;9.05;59.66;101191.24;1713879;83;21485;-65
2022/02/16 04:13:36;;;;;;;31.27;17.07;;;;;;;8.66;61.09;101187.16;1713739;83;21006;-65
2022/02/16 04:16:04;;;;;;;32.85;16.65;;;;;;;8.88;60.16;101194.20;1684297;83;21033;-70
2022/02/16 04:18:31;;;;;;;28.65;16.27;;;;;;;8.86;59.70;101190.91;1713578;83;21013;-66
2022/02/16 04:20:57;;;;;;;31.07;17.37;;;;;;;8.77;60.63;101191.33;1714315;83;22142;-65
2022/02/16 04:23:26;;;;;;;32.50;18.20;;;;;;;8.53;61.27;101191.91;1710590;83;20995;-69
2022/02/16 04:25:52;;;;;;;36.30;20.35;;;;;;;8.80;60.52;101193.64;1713189;83;21050;-64
2022/02/16 04:28:21;;;;;;;37.60;20.90;;;;;;;8.87;60.03;101192.08;1713420;83;20911;-64
2022/02/16 04:30:48;;;;;;;33.05;20.72;;;;;;;8.90;60.29;101194.39;1713275;83;21021;-63
2022/02/16 04:33:15;;;;;;;34.13;20.23;;;;;;;8.96;60.07;101191.66;1713303;83;22180;-66
2022/02/16 04:35:42;;;;;;;35.55;21.68;;;;;;;8.85;60.08;101194.48;1712842;83;21018;-66
2022/02/16 04:38:09;;;;;;;30.57;17.82;;;;;;;8.89;60.41;101198.42;1712883;82;21082;-65
2022/02/16 04:40:37;;;;;;;27.85;17.25;;;;;;;8.84;60.72;101199.36;1712652;83;21548;-65
2022/02/16 04:43:05;;;;;;;25.05;14.80;;;;;;;8.88;60.62;101198.09;1713116;83;21285;-65
2022/02/16 04:45:34;;;;;;;25.20;13.60;;;;;;;9.03;60.14;101193.19;1713152;83;21757;-68
2022/02/16 04:48:00;;;;;;;34.48;18.40;;;;;;;8.80;60.79;101200.14;1713623;83;21037;-65
2022/02/16 04:50:28;;;;;;;23.92;13.95;;;;;;;8.67;62.18;101195.77;1712542;83;21571;-65
2022/02/16 04:52:55;;;;;;;20.32;12.93;;;;;;;8.72;62.79;101195.68;1713110;83;21085;-66
2022/02/16 04:55:25;;;;;;;18.62;11.63;;;;;;;9.00;60.90;101195.59;1666403;85;21051;-69
2022/02/16 04:57:53;;;;;;;22.62;12.78;;;;;;;8.82;61.34;101187.80;1630925;87;21540;-67
2022/02/16 05:00:20;;;;;;;22.25;13.10;;;;;;;8.76;61.21;101188.41;1709300;83;21053;-68
2022/02/16 05:02:49;;;;;;;20.30;13.35;;;;;;;8.67;60.65;101196.59;1714908;82;21129;-66
2022/02/16 05:05:15;;;;;;;21.45;13.13;;;;;;;8.59;60.51;101202.19;1715324;83;21016;-68
2022/02/16 05:07:42;;;;;;;20.85;11.78;;;;;;;8.49;61.11;101199.19;1716036;83;21125;-67
2022/02/16 05:10:10;;;;;;;22.65;12.45;;;;;;;8.40;62.29;101198.74;1715416;83;21108;-69
2022/02/16 05:12:37;;;;;;;22.17;13.53;;;;;;;8.21;63.68;101200.93;1715360;83;20990;-65
2022/02/16 05:15:05;;;;;;;28.05;15.40;;;;;;;8.12;64.55;101195.31;1688412;83;21508;-65
2022/02/16 05:17:33;;;;;;;24.30;14.03;;;;;;;8.23;63.86;101194.31;1715109;83;21010;-66
2022/02/16 05:20:00;;;;;;;22.45;13.35;;;;;;;8.28;64.17;101194.20;1688899;83;21105;-68
2022/02/16 05:22:27;;;;;;;22.48;14.18;;;;;;;8.44;63.88;101201.38;1707902;82;22721;-68
2022/02/16 05:24:54;;;;;;;24.40;14.40;;;;;;;8.49;63.65;101197.88;1674458;85;21640;-67
2022/02/16 05:27:20;;;;;;;26.12;15.30;;;;;;;8.59;63.15;101191.31;1707937;82;21023;-67
2022/02/16 05:29:47;;;;;;;27.37;16.73;;;;;;;8.62;63.02;101194.92;1711707;82;21586;-67
2022/02/16 05:32:14;;;;;;;27.22;16.17;;;;;;;8.73;62.35;101188.21;1672605;85;21083;-66
2022/02/16 05:34:41;;;;;;;25.12;16.57;;;;;;;8.73;61.95;101190.00;1666969;84;21170;-68
2022/02/16 05:37:09;;;;;;;24.57;15.13;;;;;;;8.87;60.94;101196.47;1715728;82;21085;-67
2022/02/16 05:39:35;;;;;;;22.30;14.47;;;;;;;8.82;61.20;101192.18;1707875;82;22503;-65
2022/02/16 05:42:04;;;;;;;24.40;15.25;;;;;;;8.77;61.69;101192.63;1715954;82;21019;-67
2022/02/16 05:44:31;;;;;;;26.40;15.93;;;;;;;8.95;61.35;101192.16;1707511;82;20990;-66
2022/02/16 05:46:58;;;;;;;23.57;14.50;;;;;;;8.71;62.34;101194.05;1707544;82;22066;-66
2022/02/16 05:49:25;;;;;;;22.00;14.50;;;;;;;8.61;62.36;101202.87;1711896;82;22380;-67
2022/02/16 05:51:52;;;;;;;27.62;14.70;;;;;;;8.88;63.02;101199.40;1715281;82;21176;-67
2022/02/16 05:54:20;;;;;;;32.83;18.92;;;;;;;9.16;64.35;101194.42;1715379;82;20947;-63
2022/02/16 05:56:47;;;;;;;30.15;18.15;;;;;;;9.63;64.71;101188.91;1677713;83;20996;-62
2022/02/16 05:59:15;;;;;;;33.42;17.92;;;;;;;9.95;62.90;101190.86;1678054;85;21939;-66
2022/02/16 06:01:42;;;;;;;27.98;16.25;;;;;;;10.16;59.93;101190.47;1657411;82;21835;-69
2022/02/16 06:04:08;;;;;;;26.60;16.10;;;;;;;10.01;61.89;101191.22;1648134;85;21841;-69
2022/02/16 06:06:36;;;;;;;26.20;15.98;;;;;;;10.73;60.70;101182.01;1721267;81;21056;-65
2022/02/16 06:09:03;;;;;;;22.25;14.05;;;;;;;11.09;57.32;101192.94;1721546;82;21027;-67
2022/02/16 06:11:30;;;;;;;21.68;13.03;;;;;;;11.48;55.88;101192.27;1726552;81;21208;-72
2022/02/16 06:13:59;;;;;;;22.10;14.15;;;;;;;11.34;55.73;101201.58;1720948;81;20951;-70
2022/02/16 06:16:26;;;;;;;21.48;12.10;;;;;;;11.63;56.95;101201.52;1715493;82;21078;-70
2022/02/16 06:18:54;;;;;;;23.38;13.70;;;;;;;12.49;53.06;101191.58;1722371;82;20952;-70
2022/02/16 06:21:21;;;;;;;19.52;12.00;;;;;;;12.72;50.78;101187.67;1718634;82;21135;-70
2022/02/16 06:23:50;;;;;;;25.55;15.58;;;;;;;12.64;49.70;101192.97;1710737;81;21178;-74
2022/02/16 06:26:17;;;;;;;29.57;19.23;;;;;;;12.12;49.37;101190.95;1685346;83;21577;-66
2022/02/16 06:28:44;;;;;;;28.95;19.65;;;;;;;12.35;50.39;101197.07;1718017;81;21011;-67
2022/02/16 06:31:13;;;;;;;28.17;19.70;;;;;;;12.49;51.46;101193.39;1717642;83;21529;-73
2022/02/16 06:33:40;;;;;;;27.50;18.80;;;;;;;13.13;51.29;101195.22;1716876;82;21080;-73
2022/02/16 06:36:08;;;;;;;28.13;18.60;;;;;;;13.98;49.71;101184.88;1704152;81;21288;-69
2022/02/16 06:38:36;;;;;;;30.00;19.43;;;;;;;14.53;47.17;101175.67;1717150;83;21247;-67
2022/02/16 06:41:04;;;;;;;31.97;21.30;;;;;;;15.15;45.90;101180.76;1718522;81;21240;-67
2022/02/16 06:43:32;;;;;;;26.70;17.63;;;;;;;15.80;45.03;101162.02;1717553;81;21764;-68
2022/02/16 06:45:59;;;;;;;25.97;17.60;;;;;;;16.42;42.06;101160.70;1713981;82;22403;-69
2022/02/16 06:48:26;;;;;;;24.20;17.13;;;;;;;16.67;40.83;101160.45;1698673;82;21819;-69
2022/02/16 06:50:53;;;;;;;24.50;17.47;;;;;;;16.92;39.74;101155.42;1710233;83;21034;-69
2022/02/16 06:53:20;;;;;;;30.20;18.03;;;;;;;16.88;39.89;101166.56;1685446;85;21041;-69
2022/02/16 06:55:48;;;;;;;25.47;16.50;;;;;;;17.36;39.08;101159.75;1718114;83;21105;-69
2022/02/16 06:58:17;;;;;;;24.97;16.53;;;;;;;17.73;38.87;101159.05;1717519;83;21057;-69
2022/02/16 07:00:43;;;;;;;37.93;18.87;;;;;;;17.82;38.07;101160.16;1717275;83;21130;-70
2022/02/16 07:03:13;;;;;;;26.10;17.60;;;;;;;17.43;37.43;101155.28;1714186;82;20966;-69
2022/02/16 07:05:41;;;;;;;24.20;17.80;;;;;;;17.41;36.70;101156.79;1711277;82;20975;-69
2022/02/16 07:08:10;;;;;;;29.63;18.87;;;;;;;17.31;36.38;101145.05;1710034;83;22280;-69
2022/02/16 07:10:37;;;;;;;34.93;20.17;;;;;;;17.20;36.52;101143.88;1718745;82;21157;-69
2022/02/16 07:13:03;;;;;;;27.87;17.63;;;;;;;17.08;36.32;101144.97;1719170;82;21225;-69
2022/02/16 07:15:32;;;;;;;24.40;15.20;;;;;;;17.44;36.56;101149.80;1715659;83;20966;-68
2022/02/16 07:18:01;;;;;;;25.77;16.93;;;;;;;17.50;35.84;101152.09;1716232;83;21089;-69
2022/02/16 07:20:29;;;;;;;23.70;15.53;;;;;;;17.24;35.75;101143.25;1693770;83;21081;-69
2022/02/16 07:22:56;;;;;;;21.07;13.90;;;;;;;17.18;35.95;101150.64;1714578;83;21625;-69
2022/02/16 07:25:25;;;;;;;23.40;15.03;;;;;;;16.92;36.45;101155.93;1715705;82;21182;-71
2022/02/16 07:27:52;;;;;;;22.53;14.43;;;;;;;16.53;36.73;101158.81;1713586;83;21768;-68
2022/02/16 07:30:21;;;;;;;21.53;14.20;;;;;;;16.24;36.79;101150.73;1685065;84;21841;-68
2022/02/16 07:32:49;;;;;;;21.87;13.60;;;;;;;15.87;37.27;101150.19;1716857;83;21479;-68
2022/02/16 07:35:16;;;;;;;18.43;12.87;;;;;;;15.87;37.27;101150.19;1714715;83;22242;-69
2022/02/16 07:37:44;;;;;;;22.77;14.57;;;;;;;15.60;37.83;101148.42;1716890;82;21601;-71
2022/02/16 07:40:13;;;;;;;24.67;16.73;;;;;;;15.60;37.83;101148.42;1712462;83;21780;-68
2022/02/16 07:42:40;;;;;;;24.57;14.40;;;;;;;15.18;38.53;101149.67;1717037;82;21390;-67
2022/02/16 07:45:22;;;;;;;23.92;13.62;;;;;;;15.18;38.53;101149.67;1719976;82;21433;-69
2022/02/16 07:47:48;;;;;;;25.33;13.20;;;;;;;15.14;38.92;101141.87;1717003;83;20951;-68
2022/02/16 07:50:15;;;;;;;21.87;12.97;;;;;;;14.97;39.30;101141.36;1717085;82;21266;-68
2022/02/16 07:53:05;;;;;;;47.23;26.70;;;;;;;15.17;38.98;101134.93;1707662;83;21176;-67
2022/02/16 07:55:32;;;;;;;44.98;27.25;;;;;;;15.36;39.35;101134.75;1717195;82;21803;-70
2022/02/16 07:58:01;;;;;;;27.70;17.03;;;;;;;15.30;39.85;101130.25;1720323;82;21027;-66
2022/02/16 08:00:29;;;;;;;17.80;11.70;;;;;;;15.79;40.13;101126.20;1718620;82;21664;-64
2022/02/16 08:02:58;;;;;;;19.80;11.80;;;;;;;16.46;38.83;101127.72;1710735;82;21583;-64
2022/02/16 08:05:26;;;;;;;16.73;10.80;;;;;;;16.82;37.56;101122.12;1713930;82;21668;-75
2022/02/16 08:07:54;;;;;;;22.37;14.73;;;;;;;16.89;37.45;101119.46;1710184;82;21869;-64
2022/02/16 08:10:22;;;;;;;15.40;11.03;;;;;;;17.23;37.02;101113.14;1653838;85;21046;-64
2022/02/16 08:12:52;;;;;;;18.47;12.00;;;;;;;17.57;36.62;101107.27;1671214;85;21122;-66
2022/02/16 08:15:20;;;;;;;16.53;11.20;;;;;;;18.45;35.09;101099.03;1665417;84;22727;-78
2022/02/16 08:17:49;;;;;;;16.37;10.90;;;;;;;18.62;34.55;101094.53;1708825;82;21587;-66
2022/02/16 08:20:15;;;;;;;20.93;15.67;;;;;;;18.92;34.33;101098.16;1708427;82;21395;-65
2022/02/16 08:22:51;;;;;;;17.10;12.47;;;;;;;18.83;34.84;101090.74;1707150;82;21094;-64
2022/02/16 08:25:18;;;;;;;24.53;15.83;;;;;;;19.43;33.89;101081.66;1708318;83;21071;-77
2022/02/16 08:27:57;;;;;;;24.47;14.43;;;;;;;19.34;33.40;101090.41;1684697;83;21069;-68
2022/02/16 08:30:24;;;;;;;22.37;15.33;;;;;;;19.44;33.53;101083.30;1709885;83;21007;-67
2022/02/16 08:32:52;;;;;;;17.33;12.97;;;;;;;20.01;32.71;101081.17;1715781;83;20951;-66
2022/02/16 08:35:20;;;;;;;20.47;13.00;;;;;;;20.48;31.60;101081.27;1706304;82;21003;-68
2022/02/16 08:37:48;;;;;;;21.87;13.07;;;;;;;20.25;31.73;101080.71;1709821;83;22465;-67
2022/02/16 08:40:16;;;;;;;25.13;14.33;;;;;;;19.84;31.96;101082.30;1712783;83;21149;-66
2022/02/16 08:42:43;;;;;;;31.60;19.23;;;;;;;19.92;32.05;101077.21;1707324;82;21007;-67
2022/02/16 08:45:09;;;;;;;29.43;17.23;;;;;;;19.79;31.96;101077.41;1703151;83;21528;-78
2022/02/16 08:47:38;;;;;;;20.93;12.63;;;;;;;19.78;31.90;101069.19;1714458;82;22989;-67
2022/02/16 08:50:07;;;;;;;29.47;17.13;;;;;;;19.44;31.66;101064.80;1712856;82;22324;-71
2022/02/16 08:52:34;;;;;;;21.03;14.33;;;;;;;18.92;32.50;101074.37;1715308;83;21190;-69
2022/02/16 08:55:00;;;;;;;27.23;15.70;;;;;;;19.11;32.79;101071.77;1713794;82;20975;-69
2022/02/16 08:57:27;;;;;;;22.87;14.67;;;;;;;19.60;32.40;101058.89;1707384;83;21129;-68
2022/02/16 08:59:53;;;;;;;18.93;13.40;;;;;;;19.39;32.97;101068.59;1712165;82;21091;-69
2022/02/16 09:02:20;;;;;;;20.20;14.80;;;;;;;19.68;32.31;101059.12;1713622;82;21129;-68
2022/02/16 09:04:47;;;;;;;20.23;12.80;;;;;;;19.48;32.16;101069.93;1714277;82;21492;-68
2022/02/16 09:07:30;;;;;;;25.23;14.73;;;;;;;19.60;31.87;101057.56;1713912;82;21120;-72
2022/02/16 09:09:59;;;;;;;16.83;11.40;;;;;;;19.87;31.95;101051.95;1717267;82;20983;-70
2022/02/16 09:12:27;;;;;;;18.73;11.97;;;;;;;17.66;33.87;101057.27;1711272;82;21512;-73
2022/02/16 09:14:54;;;;;;;20.13;12.10;;;;;;;16.90;35.42;101068.44;1714138;82;21074;-75
2022/02/16 09:17:21;;;;;;;24.17;13.57;;;;;;;17.38;35.80;101068.10;1716109;83;21181;-70
2022/02/16 09:19:49;;;;;;;21.70;13.80;;;;;;;17.25;36.30;101061.86;1686285;83;20947;-68
2022/02/16 09:22:16;;;;;;;20.23;12.67;;;;;;;17.67;36.26;101057.55;1715528;83;21071;-67
2022/02/16 09:24:44;;;;;;;25.20;14.73;;;;;;;18.12;35.74;101058.34;1719329;81;21054;-68
2022/02/16 09:27:10;;;;;;;26.53;15.57;;;;;;;20.33;32.08;101035.89;1705699;83;21086;-74
2022/02/16 09:29:37;;;;;;;26.23;14.87;;;;;;;20.64;31.17;101034.26;1712384;83;21150;-70
2022/02/16 09:32:05;;;;;;;22.80;13.83;;;;;;;20.39;31.19;101025.72;1719633;82;21065;-67
2022/02/16 09:34:32;;;;;;;19.87;12.13;;;;;;;20.76;30.72;101020.20;1716737;83;22455;-67
2022/02/16 09:36:59;;;;;;;21.07;12.07;;;;;;;20.20;31.18;101017.58;1716818;83;21014;-67
2022/02/16 09:39:28;;;;;;;20.33;13.57;;;;;;;20.55;30.80;101013.14;1716987;83;20936;-72
2022/02/16 09:41:56;;;;;;;21.07;13.00;;;;;;;20.18;31.06;101013.30;1722891;81;21094;-65
2022/02/16 09:44:34;;;;;;;14.20;9.77;;;;;;;19.91;31.37;101000.19;1709464;82;21256;-66
2022/02/16 09:47:05;;;;;;;15.90;10.77;;;;;;;19.96;31.72;100996.34;1697342;82;21056;-66
2022/02/16 09:49:34;;;;;;;15.63;10.05;;;;;;;19.92;31.53;100999.16;1717240;83;20954;-67
2022/02/16 09:52:01;;;;;;;14.70;9.50;;;;;;;19.95;31.24;100996.06;1717757;83;20951;-68
2022/02/16 09:54:28;;;;;;;16.10;10.80;;;;;;;19.98;31.07;100989.00;1718326;83;21073;-66
2022/02/16 09:56:54;;;;;;;28.17;16.00;;;;;;;19.55;31.14;100988.67;1716796;83;21571;-69
2022/02/16 09:59:20;;;;;;;19.17;12.13;;;;;;;18.92;32.12;100983.23;1717706;83;20970;-67
2022/02/16 10:02:00;;;;;;;18.77;12.77;;;;;;;19.03;32.64;100980.38;1719282;82;21341;-69
2022/02/16 10:04:29;;;;;;;17.00;11.37;;;;;;;19.30;32.25;100982.70;1723019;82;20946;-71
2022/02/16 10:06:56;;;;;;;22.23;13.07;;;;;;;19.20;31.96;100978.73;1722626;83;21122;-69
2022/02/16 10:09:31;;;;;;;23.37;15.40;;;;;;;18.89;32.23;100982.87;1675343;84;21096;-69
2022/02/16 10:12:02;;;;;;;20.30;12.83;;;;;;;18.46;32.95;100984.48;1717202;83;21551;-67
2022/02/16 10:14:32;;;;;;;16.85;11.05;;;;;;;18.50;32.77;100980.09;1721577;83;20939;-68
2022/02/16 10:17:03;;;;;;;17.62;11.63;;;;;;;18.13;32.98;100979.48;1720135;83;21026;-67
2022/02/16 10:19:52;;;;;;;22.97;16.63;;;;;;;17.91;33.28;100984.81;1721209;83;39137;-66
2022/02/16 10:22:30;;;;;;;17.77;12.43;;;;;;;17.82;33.74;100975.55;1720028;83;21552;-67
2022/02/16 10:25:21;;;;;;;24.77;15.63;;;;;;;17.41;34.13;100980.20;1717494;83;20994;-71
2022/02/16 10:28:17;;;;;;;25.97;16.10;;;;;;;17.45;34.23;100976.13;1720297;83;22293;-70
2022/02/16 10:31:04;;;;;;;29.13;19.63;;;;;;;16.99;34.89;100963.96;1720147;83;20978;-66
2022/02/16 10:33:33;;;;;;;31.80;17.13;;;;;;;16.87;35.49;100972.20;1719440;82;21694;-66
2022/02/16 10:36:13;;;;;;;26.60;15.77;;;;;;;16.24;36.50;100959.50;1720534;83;21616;-68
2022/02/16 10:39:01;;;;;;;23.07;12.90;;;;;;;16.43;36.17;100963.13;1709027;83;21751;-69
2022/02/16 10:41:31;;;;;;;23.87;14.83;;;;;;;16.59;36.14;100959.26;1720272;81;21952;-73
2022/02/16 10:43:58;;;;;;;36.80;21.12;;;;;;;16.59;36.14;100959.26;1718967;81;22102;-69
2022/02/16 10:46:27;;;;;;;31.60;19.60;;;;;;;17.10;36.21;100953.29;1721257;81;21866;-67
2022/02/16 10:49:17;;;;;;;29.50;17.47;;;;;;;17.10;36.21;100953.29;1719378;81;22102;-72
2022/02/16 10:51:45;;;;;;;33.80;18.27;;;;;;;17.22;35.54;100946.34;1703595;81;21897;-66
2022/02/16 10:54:17;;;;;;;35.43;16.23;;;;;;;16.80;36.44;100944.28;1719158;83;22294;-65
2022/02/16 10:56:46;;;;;;;25.83;15.33;;;;;;;16.70;36.80;100954.69;1715140;81;21240;-67
2022/02/16 10:59:12;;;;;;;25.13;15.70;;;;;;;16.41;37.49;100944.12;1720569;83;21464;-66
2022/02/16 11:01:40;;;;;;;29.83;16.30;;;;;;;16.41;37.49;100944.12;1720028;81;21341;-68
2022/02/16 11:04:08;;;;;;;24.20;13.80;;;;;;;16.35;37.58;100948.07;1688612;83;21508;-67
2022/02/16 11:06:41;;;;;;;29.70;14.20;;;;;;;16.57;37.62;100942.88;1688545;84;21446;-73
2022/02/16 11:09:18;;;;;;;22.83;12.00;;;;;;;16.20;37.98;100944.34;1698767;83;21449;-69
2022/02/16 11:11:47;;;;;;;24.70;12.60;;;;;;;16.20;37.98;100944.34;1697474;82;22796;-66
2022/02/16 11:14:13;;;;;;;23.97;13.60;;;;;;;16.40;37.84;100943.83;1696882;82;21323;-67
2022/02/16 11:16:41;;;;;;;24.87;14.27;;;;;;;16.36;37.72;100939.96;1660448;84;21166;-70
2022/02/16 11:19:27;;;;;;;28.17;15.87;;;;;;;16.02;38.12;100936.56;1737008;81;21365;-64
2022/02/16 11:22:11;;;;;;;27.37;14.70;;;;;;;16.10;38.16;100932.09;1724391;81;21227;-65
2022/02/16 11:24:45;;;;;;;26.47;13.33;;;;;;;15.92;38.32;100934.83;1727532;81;21899;-68